Rhinecliff, NY (12574)

8:54 AM EDT on July 29, 2016 (GMT -0400)
Rhinecliff Hamlet | | Change Station

Elev 85 ft 41.92 °N, 73.95 °W | Updated 10 minutes ago

Mostly Cloudy
Mostly Cloudy
74.7 °F
Feels Like 73 °F
N
0.0
Wind Variable Wind from NNW

Today
High -- | Low -- °F
--% Chance of Precip.
Yesterday
High -- | Low -- °F
Precip. -- in
Pressure 29.86 in
Visibility 8.0 miles
Clouds Few 7000 ft
Mostly Cloudy 9500 ft
Mostly Cloudy 12000 ft
Heat Index 73 °F
Dew Point 73 °F
Humidity 94%
Rainfall in
Snow Depth Not available.
5:46 AM 8:16 PM
Waning Crescent, 22% visible
METAR KPOU 291153Z 34003KT 8SM FEW070 BKN095 BKN120 22/20 A2987 RMK AO2 RAE18 SLP111 P0001 60015 70018 T02220200 10239 20217 53010
Pressure 29.86 in
Visibility 8.0 miles
Clouds Few 7000 ft
Mostly Cloudy 9500 ft
Mostly Cloudy 12000 ft
Heat Index 73 °F
Dew Point 73 °F
Humidity 94%
Rainfall in
Snow Depth Not available.
5:46 AM 8:16 PM
Waning Crescent, 22% visible
METAR KPOU 291153Z 34003KT 8SM FEW070 BKN095 BKN120 22/20 A2987 RMK AO2 RAE18 SLP111 P0001 60015 70018 T02220200 10239 20217 53010

10-Day Weather Forecast

Almanac

Astronomy

Jul. 29, 2016 Rise Set
Actual Time
Civil Twilight
Nautical Twilight
Astronomical Twilight
Moon
Length of Visible Light
Length of Day
Tomorrow will be .
, % of the Moon is Illuminated

Today's Extremes

State Highs State Lows

Community

WunderPhotos

Upload Photos

1,928,335 photos uploaded!

WunderBlog® & News

Nearby

Air Quality

  Air Quality AQ Index Pollutant
Not available.

Snow Depth

Station Depth Elevation

Earthquake Activity

City Distance Mag. Time & Date
Minimum magnitude displayed is 2.5.

Coastal Water Temperatures

Place Temperature

Stations

Nearby Weather Stations

Station Location Temp. Windchill Dew Point Humidity Wind Precip. Elev Updated Type
                   

Watches & Warnings

There are currently no watches in effect.